sensor_id;sensor_type;location;lat;lon;timestamp;P1;durP1;ratioP1;P2;durP2;ratioP2
6902;SDS011;20232;49.408;8.702;2023-03-03T05:02:34;21.20;;;16.10;;
6902;SDS011;20232;49.408;8.702;2023-03-03T05:04:59;25.63;;;16.67;;
6902;SDS011;20232;49.408;8.702;2023-03-03T05:07:25;22.80;;;15.70;;
6902;SDS011;20232;49.408;8.702;2023-03-03T05:09:50;23.50;;;16.13;;
6902;SDS011;20232;49.408;8.702;2023-03-03T05:12:16;22.77;;;15.00;;
6902;SDS011;20232;49.408;8.702;2023-03-03T05:14:42;22.10;;;15.80;;
6902;SDS011;20232;49.408;8.702;2023-03-03T05:17:07;22.03;;;15.60;;
6902;SDS011;20232;49.408;8.702;2023-03-03T05:19:33;24.03;;;16.00;;
6902;SDS011;20232;49.408;8.702;2023-03-03T05:21:59;20.27;;;15.90;;
6902;SDS011;20232;49.408;8.702;2023-03-03T05:24:25;23.03;;;15.80;;
6902;SDS011;20232;49.408;8.702;2023-03-03T05:26:51;22.73;;;15.80;;
6902;SDS011;20232;49.408;8.702;2023-03-03T05:29:17;19.57;;;15.80;;
6902;SDS011;20232;49.408;8.702;2023-03-03T05:31:43;22.03;;;15.83;;
6902;SDS011;20232;49.408;8.702;2023-03-03T05:34:08;23.63;;;17.23;;
6902;SDS011;20232;49.408;8.702;2023-03-03T05:36:34;23.13;;;16.50;;
6902;SDS011;20232;49.408;8.702;2023-03-03T05:38:59;23.17;;;17.17;;
6902;SDS011;20232;49.408;8.702;2023-03-03T05:41:25;22.67;;;17.03;;
6902;SDS011;20232;49.408;8.702;2023-03-03T05:43:51;22.23;;;16.57;;
6902;SDS011;20232;49.408;8.702;2023-03-03T05:46:16;25.00;;;17.83;;
6902;SDS011;20232;49.408;8.702;2023-03-03T05:48:42;24.30;;;17.50;;
6902;SDS011;20232;49.408;8.702;2023-03-03T05:51:08;24.70;;;18.07;;
6902;SDS011;20232;49.408;8.702;2023-03-03T05:53:33;24.30;;;16.90;;
6902;SDS011;20232;49.408;8.702;2023-03-03T05:55:59;22.93;;;16.47;;
6902;SDS011;20232;49.408;8.702;2023-03-03T05:58:25;25.67;;;18.00;;
6902;SDS011;20232;49.408;8.702;2023-03-03T06:00:50;25.63;;;17.13;;
6902;SDS011;20232;49.408;8.702;2023-03-03T06:03:16;23.30;;;17.27;;
6902;SDS011;20232;49.408;8.702;2023-03-03T06:05:41;25.23;;;16.43;;
6902;SDS011;20232;49.408;8.702;2023-03-03T06:08:07;25.13;;;17.80;;
6902;SDS011;20232;49.408;8.702;2023-03-03T06:10:33;26.33;;;17.60;;
6902;SDS011;20232;49.408;8.702;2023-03-03T06:12:59;26.07;;;17.63;;
6902;SDS011;20232;49.408;8.702;2023-03-03T06:15:25;22.17;;;17.27;;
6902;SDS011;20232;49.408;8.702;2023-03-03T06:17:50;23.53;;;16.77;;
6902;SDS011;20232;49.408;8.702;2023-03-03T06:20:16;26.07;;;17.10;;
6902;SDS011;20232;49.408;8.702;2023-03-03T06:22:41;24.30;;;16.27;;
6902;SDS011;20232;49.408;8.702;2023-03-03T06:25:07;22.30;;;17.00;;
6902;SDS011;20232;49.408;8.702;2023-03-03T06:27:33;24.07;;;17.10;;
6902;SDS011;20232;49.408;8.702;2023-03-03T06:29:59;25.50;;;17.30;;
6902;SDS011;20232;49.408;8.702;2023-03-03T06:32:24;23.77;;;16.50;;
6902;SDS011;20232;49.408;8.702;2023-03-03T06:34:50;26.23;;;16.87;;
6902;SDS011;20232;49.408;8.702;2023-03-03T06:37:16;25.23;;;17.77;;
6902;SDS011;20232;49.408;8.702;2023-03-03T06:39:42;29.60;;;17.97;;
6902;SDS011;20232;49.408;8.702;2023-03-03T06:42:07;22.60;;;16.47;;
6902;SDS011;20232;49.408;8.702;2023-03-03T06:44:33;25.10;;;16.10;;
6902;SDS011;20232;49.408;8.702;2023-03-03T06:46:59;23.07;;;17.80;;
6902;SDS011;20232;49.408;8.702;2023-03-03T06:49:25;26.60;;;17.70;;
6902;SDS011;20232;49.408;8.702;2023-03-03T06:51:51;23.63;;;16.23;;
6902;SDS011;20232;49.408;8.702;2023-03-03T06:54:18;25.40;;;17.00;;
6902;SDS011;20232;49.408;8.702;2023-03-03T06:56:51;26.97;;;16.90;;
6902;SDS011;20232;49.408;8.702;2023-03-03T06:59:22;24.73;;;16.03;;
6902;SDS011;20232;49.408;8.702;2023-03-03T07:01:48;22.57;;;15.93;;
6902;SDS011;20232;49.408;8.702;2023-03-03T07:06:43;24.87;;;15.90;;
6902;SDS011;20232;49.408;8.702;2023-03-03T07:09:13;27.10;;;16.93;;
6902;SDS011;20232;49.408;8.702;2023-03-03T07:11:45;19.93;;;15.57;;
6902;SDS011;20232;49.408;8.702;2023-03-03T07:14:15;22.40;;;16.13;;
6902;SDS011;20232;49.408;8.702;2023-03-03T07:16:45;27.10;;;16.97;;
6902;SDS011;20232;49.408;8.702;2023-03-03T07:19:22;26.70;;;17.33;;
6902;SDS011;20232;49.408;8.702;2023-03-03T07:21:55;23.77;;;16.97;;
6902;SDS011;20232;49.408;8.702;2023-03-03T07:24:26;23.20;;;16.67;;
6902;SDS011;20232;49.408;8.702;2023-03-03T07:26:54;25.07;;;17.60;;
6902;SDS011;20232;49.408;8.702;2023-03-03T07:29:30;23.53;;;17.67;;
6902;SDS011;20232;49.408;8.702;2023-03-03T07:31:57;24.10;;;16.93;;
6902;SDS011;20232;49.408;8.702;2023-03-03T07:34:38;22.03;;;18.00;;
6902;SDS011;20232;49.408;8.702;2023-03-03T07:37:10;23.13;;;16.83;;
6902;SDS011;20232;49.408;8.702;2023-03-03T07:39:42;23.70;;;17.60;;
6902;SDS011;20232;49.408;8.702;2023-03-03T07:42:22;23.73;;;16.97;;
6902;SDS011;20232;49.408;8.702;2023-03-03T07:44:57;25.63;;;17.07;;
6902;SDS011;20232;49.408;8.702;2023-03-03T07:47:25;23.17;;;16.13;;
6902;SDS011;20232;49.408;8.702;2023-03-03T07:49:53;22.77;;;16.27;;
6902;SDS011;20232;49.408;8.702;2023-03-03T07:52:23;20.37;;;15.70;;
6902;SDS011;20232;49.408;8.702;2023-03-03T07:54:53;21.77;;;15.60;;
6902;SDS011;20232;49.408;8.702;2023-03-03T07:57:22;20.60;;;15.80;;
6902;SDS011;20232;49.408;8.702;2023-03-03T08:04:47;21.47;;;16.13;;
6902;SDS011;20232;49.408;8.702;2023-03-03T08:07:18;23.60;;;16.83;;
6902;SDS011;20232;49.408;8.702;2023-03-03T08:09:47;22.40;;;16.67;;
6902;SDS011;20232;49.408;8.702;2023-03-03T08:12:23;22.53;;;16.93;;
6902;SDS011;20232;49.408;8.702;2023-03-03T08:14:55;23.60;;;16.77;;
6902;SDS011;20232;49.408;8.702;2023-03-03T08:17:35;23.27;;;16.93;;
6902;SDS011;20232;49.408;8.702;2023-03-03T08:20:38;23.17;;;16.83;;
6902;SDS011;20232;49.408;8.702;2023-03-03T08:23:15;22.70;;;16.83;;
6902;SDS011;20232;49.408;8.702;2023-03-03T08:25:42;24.33;;;17.53;;
6902;SDS011;20232;49.408;8.702;2023-03-03T08:28:08;24.40;;;18.00;;
6902;SDS011;20232;49.408;8.702;2023-03-03T08:30:34;21.50;;;17.30;;
6902;SDS011;20232;49.408;8.702;2023-03-03T08:32:59;21.17;;;17.07;;
6902;SDS011;20232;49.408;8.702;2023-03-03T08:35:25;24.80;;;18.77;;
6902;SDS011;20232;49.408;8.702;2023-03-03T08:37:51;25.53;;;20.37;;
6902;SDS011;20232;49.408;8.702;2023-03-03T08:40:16;29.23;;;21.53;;
6902;SDS011;20232;49.408;8.702;2023-03-03T08:42:42;29.87;;;23.17;;
6902;SDS011;20232;49.408;8.702;2023-03-03T08:45:07;35.67;;;25.10;;
6902;SDS011;20232;49.408;8.702;2023-03-03T08:47:33;35.23;;;23.97;;
6902;SDS011;20232;49.408;8.702;2023-03-03T08:49:59;32.80;;;23.83;;
6902;SDS011;20232;49.408;8.702;2023-03-03T08:52:24;37.33;;;25.23;;
6902;SDS011;20232;49.408;8.702;2023-03-03T08:54:50;32.67;;;24.20;;
6902;SDS011;20232;49.408;8.702;2023-03-03T08:57:16;31.87;;;24.47;;
6902;SDS011;20232;49.408;8.702;2023-03-03T08:59:42;30.57;;;23.43;;
6902;SDS011;20232;49.408;8.702;2023-03-03T09:02:08;31.60;;;23.17;;
6902;SDS011;20232;49.408;8.702;2023-03-03T09:04:34;29.77;;;23.77;;
6902;SDS011;20232;49.408;8.702;2023-03-03T09:06:59;31.53;;;23.10;;
6902;SDS011;20232;49.408;8.702;2023-03-03T09:09:25;33.83;;;23.40;;
6902;SDS011;20232;49.408;8.702;2023-03-03T09:11:56;27.77;;;21.63;;
6902;SDS011;20232;49.408;8.702;2023-03-03T09:14:23;27.83;;;21.80;;
6902;SDS011;20232;49.408;8.702;2023-03-03T09:16:53;27.43;;;20.97;;
6902;SDS011;20232;49.408;8.702;2023-03-03T09:19:22;26.50;;;22.00;;
6902;SDS011;20232;49.408;8.702;2023-03-03T09:21:48;28.53;;;21.90;;
6902;SDS011;20232;49.408;8.702;2023-03-03T09:24:28;37.10;;;26.30;;
6902;SDS011;20232;49.408;8.702;2023-03-03T09:26:56;25.37;;;21.93;;
6902;SDS011;20232;49.408;8.702;2023-03-03T09:29:30;29.40;;;21.33;;
6902;SDS011;20232;49.408;8.702;2023-03-03T09:32:07;30.93;;;21.37;;
6902;SDS011;20232;49.408;8.702;2023-03-03T09:34:44;32.77;;;22.80;;
6902;SDS011;20232;49.408;8.702;2023-03-03T09:39:50;28.47;;;22.33;;
6902;SDS011;20232;49.408;8.702;2023-03-03T09:42:21;29.03;;;22.00;;
6902;SDS011;20232;49.408;8.702;2023-03-03T09:45:21;29.47;;;22.90;;
6902;SDS011;20232;49.408;8.702;2023-03-03T09:53:50;26.00;;;21.37;;
6902;SDS011;20232;49.408;8.702;2023-03-03T09:56:24;27.23;;;21.53;;
6902;SDS011;20232;49.408;8.702;2023-03-03T10:07:14;26.67;;;20.90;;
6902;SDS011;20232;49.408;8.702;2023-03-03T10:09:52;26.17;;;21.83;;
6902;SDS011;20232;49.408;8.702;2023-03-03T10:26:09;29.30;;;24.43;;
6902;SDS011;20232;49.408;8.702;2023-03-03T10:36:45;27.80;;;24.07;;
6902;SDS011;20232;49.408;8.702;2023-03-03T10:47:12;31.70;;;24.40;;
6902;SDS011;20232;49.408;8.702;2023-03-03T10:58:08;32.63;;;26.47;;
6902;SDS011;20232;49.408;8.702;2023-03-03T11:06:21;33.03;;;26.53;;
6902;SDS011;20232;49.408;8.702;2023-03-03T11:11:47;31.77;;;25.83;;
6902;SDS011;20232;49.408;8.702;2023-03-03T11:14:23;33.80;;;26.27;;
6902;SDS011;20232;49.408;8.702;2023-03-03T11:17:17;32.40;;;26.23;;
6902;SDS011;20232;49.408;8.702;2023-03-03T11:19:54;32.47;;;26.37;;
6902;SDS011;20232;49.408;8.702;2023-03-03T11:25:14;33.67;;;27.27;;
6902;SDS011;20232;49.408;8.702;2023-03-03T11:30:58;34.53;;;27.13;;
6902;SDS011;20232;49.408;8.702;2023-03-03T11:36:47;36.73;;;28.77;;
6902;SDS011;20232;49.408;8.702;2023-03-03T11:39:19;37.20;;;27.77;;
6902;SDS011;20232;49.408;8.702;2023-03-03T11:44:40;34.43;;;28.30;;
6902;SDS011;20232;49.408;8.702;2023-03-03T11:50:01;37.37;;;28.70;;
6902;SDS011;20232;49.408;8.702;2023-03-03T11:55:08;34.30;;;27.43;;
6902;SDS011;20232;49.408;8.702;2023-03-03T12:00:36;36.30;;;28.33;;
6902;SDS011;20232;49.408;8.702;2023-03-03T12:14:32;36.23;;;28.77;;
6902;SDS011;20232;49.408;8.702;2023-03-03T12:20:24;34.70;;;27.67;;
6902;SDS011;20232;49.408;8.702;2023-03-03T12:25:57;36.13;;;29.07;;
6902;SDS011;20232;49.408;8.702;2023-03-03T12:28:35;36.57;;;29.30;;
6902;SDS011;20232;49.408;8.702;2023-03-03T12:44:28;38.37;;;30.33;;
6902;SDS011;20232;49.408;8.702;2023-03-03T12:47:12;37.03;;;29.53;;
6902;SDS011;20232;49.408;8.702;2023-03-03T12:52:36;32.73;;;27.60;;
6902;SDS011;20232;49.408;8.702;2023-03-03T13:06:27;32.23;;;27.63;;
6902;SDS011;20232;49.408;8.702;2023-03-03T13:09:16;34.67;;;27.87;;
6902;SDS011;20232;49.408;8.702;2023-03-03T13:14:41;33.10;;;27.13;;
6902;SDS011;20232;49.408;8.702;2023-03-03T13:17:28;33.40;;;27.60;;
6902;SDS011;20232;49.408;8.702;2023-03-03T13:20:11;33.30;;;27.87;;
6902;SDS011;20232;49.408;8.702;2023-03-03T13:23:06;32.10;;;26.53;;
6902;SDS011;20232;49.408;8.702;2023-03-03T13:39:26;32.33;;;26.10;;
6902;SDS011;20232;49.408;8.702;2023-03-03T13:42:13;35.43;;;26.63;;
6902;SDS011;20232;49.408;8.702;2023-03-03T13:44:51;36.10;;;26.90;;
6902;SDS011;20232;49.408;8.702;2023-03-03T13:47:29;32.93;;;27.17;;
6902;SDS011;20232;49.408;8.702;2023-03-03T13:50:10;33.80;;;26.23;;
6902;SDS011;20232;49.408;8.702;2023-03-03T13:55:42;33.43;;;26.73;;
6902;SDS011;20232;49.408;8.702;2023-03-03T13:58:24;31.70;;;25.90;;
6902;SDS011;20232;49.408;8.702;2023-03-03T14:01:26;34.33;;;27.60;;
6902;SDS011;20232;49.408;8.702;2023-03-03T14:07:37;32.50;;;26.50;;
6902;SDS011;20232;49.408;8.702;2023-03-03T14:10:07;37.63;;;27.27;;
6902;SDS011;20232;49.408;8.702;2023-03-03T14:12:48;30.97;;;25.80;;
6902;SDS011;20232;49.408;8.702;2023-03-03T14:15:28;32.37;;;25.63;;
6902;SDS011;20232;49.408;8.702;2023-03-03T14:18:17;32.27;;;25.80;;
6902;SDS011;20232;49.408;8.702;2023-03-03T14:20:50;32.33;;;26.20;;
6902;SDS011;20232;49.408;8.702;2023-03-03T14:25:49;30.93;;;25.97;;
6902;SDS011;20232;49.408;8.702;2023-03-03T14:28:16;30.47;;;24.90;;
6902;SDS011;20232;49.408;8.702;2023-03-03T14:30:45;28.67;;;24.50;;
6902;SDS011;20232;49.408;8.702;2023-03-03T14:35:38;31.27;;;25.40;;
6902;SDS011;20232;49.408;8.702;2023-03-03T14:38:22;32.67;;;25.03;;
6902;SDS011;20232;49.408;8.702;2023-03-03T14:41:19;28.90;;;24.43;;
6902;SDS011;20232;49.408;8.702;2023-03-03T14:43:56;31.70;;;24.73;;
6902;SDS011;20232;49.408;8.702;2023-03-03T14:48:55;31.43;;;25.47;;
6902;SDS011;20232;49.408;8.702;2023-03-03T14:54:07;27.87;;;23.43;;
6902;SDS011;20232;49.408;8.702;2023-03-03T14:56:39;28.57;;;23.00;;
6902;SDS011;20232;49.408;8.702;2023-03-03T14:59:37;28.53;;;23.63;;
6902;SDS011;20232;49.408;8.702;2023-03-03T15:04:46;28.37;;;23.40;;
6902;SDS011;20232;49.408;8.702;2023-03-03T15:09:58;29.27;;;22.73;;
6902;SDS011;20232;49.408;8.702;2023-03-03T15:12:25;28.63;;;23.30;;
6902;SDS011;20232;49.408;8.702;2023-03-03T15:17:32;25.80;;;21.90;;
6902;SDS011;20232;49.408;8.702;2023-03-03T15:23:24;29.47;;;23.13;;
6902;SDS011;20232;49.408;8.702;2023-03-03T15:26:08;27.20;;;22.27;;
6902;SDS011;20232;49.408;8.702;2023-03-03T15:28:38;26.73;;;22.00;;
6902;SDS011;20232;49.408;8.702;2023-03-03T15:31:27;25.87;;;21.53;;
6902;SDS011;20232;49.408;8.702;2023-03-03T15:34:26;26.53;;;22.13;;
6902;SDS011;20232;49.408;8.702;2023-03-03T15:37:04;26.23;;;21.53;;
6902;SDS011;20232;49.408;8.702;2023-03-03T15:47:48;26.90;;;20.50;;
6902;SDS011;20232;49.408;8.702;2023-03-03T15:50:31;27.40;;;20.73;;
6902;SDS011;20232;49.408;8.702;2023-03-03T15:53:26;27.50;;;21.03;;
6902;SDS011;20232;49.408;8.702;2023-03-03T15:56:33;27.90;;;19.97;;
6902;SDS011;20232;49.408;8.702;2023-03-03T16:07:29;25.00;;;20.20;;
6902;SDS011;20232;49.408;8.702;2023-03-03T16:10:14;23.80;;;19.40;;
6902;SDS011;20232;49.408;8.702;2023-03-03T16:12:54;27.53;;;21.20;;
6902;SDS011;20232;49.408;8.702;2023-03-03T16:15:45;27.47;;;20.10;;
6902;SDS011;20232;49.408;8.702;2023-03-03T16:18:29;26.63;;;19.87;;
6902;SDS011;20232;49.408;8.702;2023-03-03T16:22:02;24.60;;;19.07;;
6902;SDS011;20232;49.408;8.702;2023-03-03T16:24:13;24.50;;;17.93;;
6902;SDS011;20232;49.408;8.702;2023-03-03T16:32:36;23.67;;;17.77;;
6902;SDS011;20232;49.408;8.702;2023-03-03T16:40:25;24.97;;;17.97;;
6902;SDS011;20232;49.408;8.702;2023-03-03T16:43:03;27.43;;;18.70;;
6902;SDS011;20232;49.408;8.702;2023-03-03T16:45:40;25.20;;;17.63;;
6902;SDS011;20232;49.408;8.702;2023-03-03T16:48:21;23.13;;;18.17;;
6902;SDS011;20232;49.408;8.702;2023-03-03T16:51:03;24.13;;;18.10;;
6902;SDS011;20232;49.408;8.702;2023-03-03T16:56:18;25.83;;;19.77;;
6902;SDS011;20232;49.408;8.702;2023-03-03T17:02:02;22.90;;;18.33;;
6902;SDS011;20232;49.408;8.702;2023-03-03T17:07:19;25.43;;;18.77;;
6902;SDS011;20232;49.408;8.702;2023-03-03T17:10:48;25.90;;;18.47;;
6902;SDS011;20232;49.408;8.702;2023-03-03T17:13:37;25.30;;;19.27;;
6902;SDS011;20232;49.408;8.702;2023-03-03T17:19:03;26.27;;;19.40;;
6902;SDS011;20232;49.408;8.702;2023-03-03T17:24:24;26.27;;;18.87;;
6902;SDS011;20232;49.408;8.702;2023-03-03T17:26:59;26.57;;;19.43;;
6902;SDS011;20232;49.408;8.702;2023-03-03T17:37:25;28.63;;;21.23;;
6902;SDS011;20232;49.408;8.702;2023-03-03T17:40:01;34.53;;;22.67;;
6902;SDS011;20232;49.408;8.702;2023-03-03T17:45:11;28.93;;;21.83;;
6902;SDS011;20232;49.408;8.702;2023-03-03T17:50:24;33.53;;;22.70;;
6902;SDS011;20232;49.408;8.702;2023-03-03T18:03:49;29.47;;;22.13;;
6902;SDS011;20232;49.408;8.702;2023-03-03T18:09:20;31.77;;;21.93;;
6902;SDS011;20232;49.408;8.702;2023-03-03T18:18:04;30.17;;;20.67;;
6902;SDS011;20232;49.408;8.702;2023-03-03T18:21:13;28.67;;;21.70;;
6902;SDS011;20232;49.408;8.702;2023-03-03T18:23:44;34.27;;;21.50;;
6902;SDS011;20232;49.408;8.702;2023-03-03T18:26:27;29.07;;;20.73;;
6902;SDS011;20232;49.408;8.702;2023-03-03T18:29:04;29.73;;;19.77;;
6902;SDS011;20232;49.408;8.702;2023-03-03T18:31:31;27.07;;;20.17;;
6902;SDS011;20232;49.408;8.702;2023-03-03T18:39:49;28.00;;;20.07;;
6902;SDS011;20232;49.408;8.702;2023-03-03T18:42:36;27.17;;;19.77;;
6902;SDS011;20232;49.408;8.702;2023-03-03T18:53:15;27.50;;;19.27;;
6902;SDS011;20232;49.408;8.702;2023-03-03T18:55:47;33.30;;;20.90;;
6902;SDS011;20232;49.408;8.702;2023-03-03T19:00:50;26.53;;;18.73;;
6902;SDS011;20232;49.408;8.702;2023-03-03T19:05:57;30.07;;;19.40;;
6902;SDS011;20232;49.408;8.702;2023-03-03T19:08:25;26.57;;;18.90;;
6902;SDS011;20232;49.408;8.702;2023-03-03T19:16:51;26.77;;;19.20;;
6902;SDS011;20232;49.408;8.702;2023-03-03T19:19:18;25.70;;;18.27;;
6902;SDS011;20232;49.408;8.702;2023-03-03T19:27:41;28.70;;;19.50;;
6902;SDS011;20232;49.408;8.702;2023-03-03T19:36:01;26.40;;;18.47;;
6902;SDS011;20232;49.408;8.702;2023-03-03T19:52:02;21.97;;;16.00;;
6902;SDS011;20232;49.408;8.702;2023-03-03T20:00:41;32.93;;;22.33;;
6902;SDS011;20232;49.408;8.702;2023-03-03T20:03:32;20.90;;;15.67;;
6902;SDS011;20232;49.408;8.702;2023-03-03T20:08:50;20.87;;;14.53;;
6902;SDS011;20232;49.408;8.702;2023-03-03T20:11:34;23.13;;;14.90;;
6902;SDS011;20232;49.408;8.702;2023-03-03T20:14:20;21.40;;;14.43;;
6902;SDS011;20232;49.408;8.702;2023-03-03T20:23:19;26.97;;;17.17;;
6902;SDS011;20232;49.408;8.702;2023-03-03T20:26:24;29.57;;;20.53;;
6902;SDS011;20232;49.408;8.702;2023-03-03T20:31:46;33.33;;;21.03;;
6902;SDS011;20232;49.408;8.702;2023-03-03T20:34:45;44.33;;;30.47;;
6902;SDS011;20232;49.408;8.702;2023-03-03T20:37:37;25.70;;;17.97;;
6902;SDS011;20232;49.408;8.702;2023-03-03T20:51:37;19.10;;;12.77;;
6902;SDS011;20232;49.408;8.702;2023-03-03T20:57:26;17.20;;;11.97;;
6902;SDS011;20232;49.408;8.702;2023-03-03T21:00:07;17.20;;;12.37;;
6902;SDS011;20232;49.408;8.702;2023-03-03T21:02:44;20.53;;;13.80;;
6902;SDS011;20232;49.408;8.702;2023-03-03T21:05:30;18.63;;;13.73;;
6902;SDS011;20232;49.408;8.702;2023-03-03T21:07:57;21.93;;;14.37;;
6902;SDS011;20232;49.408;8.702;2023-03-03T21:10:29;20.50;;;13.90;;
6902;SDS011;20232;49.408;8.702;2023-03-03T21:12:58;18.43;;;13.97;;
6902;SDS011;20232;49.408;8.702;2023-03-03T21:16:01;20.87;;;14.47;;
6902;SDS011;20232;49.408;8.702;2023-03-03T21:18:32;26.17;;;16.97;;
6902;SDS011;20232;49.408;8.702;2023-03-03T21:20:58;26.20;;;15.60;;
6902;SDS011;20232;49.408;8.702;2023-03-03T21:23:24;24.70;;;16.00;;
6902;SDS011;20232;49.408;8.702;2023-03-03T21:25:50;22.03;;;14.27;;
6902;SDS011;20232;49.408;8.702;2023-03-03T21:28:27;21.37;;;15.00;;
6902;SDS011;20232;49.408;8.702;2023-03-03T21:31:13;22.53;;;14.90;;
6902;SDS011;20232;49.408;8.702;2023-03-03T21:33:54;21.37;;;15.17;;
6902;SDS011;20232;49.408;8.702;2023-03-03T21:38:58;21.97;;;15.37;;
6902;SDS011;20232;49.408;8.702;2023-03-03T21:41:26;23.33;;;15.87;;
6902;SDS011;20232;49.408;8.702;2023-03-03T21:43:51;21.67;;;14.33;;
6902;SDS011;20232;49.408;8.702;2023-03-03T21:46:18;22.17;;;15.23;;
6902;SDS011;20232;49.408;8.702;2023-03-03T21:48:45;23.80;;;15.40;;
6902;SDS011;20232;49.408;8.702;2023-03-03T21:51:10;23.17;;;15.37;;
6902;SDS011;20232;49.408;8.702;2023-03-03T21:53:40;20.77;;;14.60;;
6902;SDS011;20232;49.408;8.702;2023-03-03T21:56:06;22.80;;;15.67;;
6902;SDS011;20232;49.408;8.702;2023-03-03T21:58:32;23.13;;;15.43;;
6902;SDS011;20232;49.408;8.702;2023-03-03T22:00:57;21.90;;;15.97;;
6902;SDS011;20232;49.408;8.702;2023-03-03T22:03:23;25.60;;;15.73;;
6902;SDS011;20232;49.408;8.702;2023-03-03T22:05:48;22.37;;;15.90;;
6902;SDS011;20232;49.408;8.702;2023-03-03T22:08:14;22.97;;;15.77;;
6902;SDS011;20232;49.408;8.702;2023-03-03T22:10:46;24.00;;;16.07;;
6902;SDS011;20232;49.408;8.702;2023-03-03T22:13:16;23.97;;;16.17;;
6902;SDS011;20232;49.408;8.702;2023-03-03T22:15:44;25.20;;;16.93;;
6902;SDS011;20232;49.408;8.702;2023-03-03T22:18:12;23.03;;;16.07;;
6902;SDS011;20232;49.408;8.702;2023-03-03T22:20:38;30.10;;;17.37;;
6902;SDS011;20232;49.408;8.702;2023-03-03T22:23:04;23.00;;;15.50;;
6902;SDS011;20232;49.408;8.702;2023-03-03T22:25:30;24.57;;;17.17;;
6902;SDS011;20232;49.408;8.702;2023-03-03T22:27:55;22.93;;;16.10;;
6902;SDS011;20232;49.408;8.702;2023-03-03T22:30:21;22.63;;;16.33;;
6902;SDS011;20232;49.408;8.702;2023-03-03T22:32:46;24.87;;;16.40;;
6902;SDS011;20232;49.408;8.702;2023-03-03T22:35:16;25.07;;;16.73;;
6902;SDS011;20232;49.408;8.702;2023-03-03T22:37:42;23.87;;;16.37;;
6902;SDS011;20232;49.408;8.702;2023-03-03T22:40:08;25.77;;;16.40;;
6902;SDS011;20232;49.408;8.702;2023-03-03T22:42:34;22.93;;;16.33;;
6902;SDS011;20232;49.408;8.702;2023-03-03T22:45:00;24.27;;;16.50;;
6902;SDS011;20232;49.408;8.702;2023-03-03T22:47:25;25.07;;;16.53;;
6902;SDS011;20232;49.408;8.702;2023-03-03T22:49:51;25.67;;;17.77;;
6902;SDS011;20232;49.408;8.702;2023-03-03T22:52:16;22.67;;;17.13;;
6902;SDS011;20232;49.408;8.702;2023-03-03T22:54:42;24.43;;;16.40;;
6902;SDS011;20232;49.408;8.702;2023-03-03T22:57:07;25.13;;;17.00;;
6902;SDS011;20232;49.408;8.702;2023-03-03T22:59:33;27.33;;;17.23;;
6902;SDS011;20232;49.408;8.702;2023-03-03T23:01:58;25.10;;;16.50;;
6902;SDS011;20232;49.408;8.702;2023-03-03T23:04:24;23.90;;;16.57;;
6902;SDS011;20232;49.408;8.702;2023-03-03T23:06:50;27.47;;;16.60;;
6902;SDS011;20232;49.408;8.702;2023-03-03T23:09:15;25.57;;;17.10;;
6902;SDS011;20232;49.408;8.702;2023-03-03T23:11:41;24.03;;;16.60;;
6902;SDS011;20232;49.408;8.702;2023-03-03T23:14:07;27.43;;;17.90;;
6902;SDS011;20232;49.408;8.702;2023-03-03T23:16:32;26.40;;;17.00;;
6902;SDS011;20232;49.408;8.702;2023-03-03T23:18:58;27.77;;;16.63;;
6902;SDS011;20232;49.408;8.702;2023-03-03T23:21:23;25.97;;;17.57;;
6902;SDS011;20232;49.408;8.702;2023-03-03T23:23:49;23.37;;;16.73;;
6902;SDS011;20232;49.408;8.702;2023-03-03T23:26:14;26.90;;;16.73;;
6902;SDS011;20232;49.408;8.702;2023-03-03T23:28:40;24.90;;;17.20;;
6902;SDS011;20232;49.408;8.702;2023-03-03T23:31:05;25.83;;;16.67;;
6902;SDS011;20232;49.408;8.702;2023-03-03T23:33:31;23.53;;;15.33;;
6902;SDS011;20232;49.408;8.702;2023-03-03T23:35:59;22.30;;;15.73;;
6902;SDS011;20232;49.408;8.702;2023-03-03T23:38:24;26.27;;;16.13;;
6902;SDS011;20232;49.408;8.702;2023-03-03T23:40:50;23.97;;;15.37;;
6902;SDS011;20232;49.408;8.702;2023-03-03T23:43:16;24.77;;;16.63;;
6902;SDS011;20232;49.408;8.702;2023-03-03T23:45:41;28.20;;;16.37;;
6902;SDS011;20232;49.408;8.702;2023-03-03T23:48:07;23.90;;;16.07;;
6902;SDS011;20232;49.408;8.702;2023-03-03T23:50:33;23.03;;;15.67;;
6902;SDS011;20232;49.408;8.702;2023-03-03T23:53:01;23.50;;;15.83;;
6902;SDS011;20232;49.408;8.702;2023-03-03T23:55:27;22.60;;;15.87;;
6902;SDS011;20232;49.408;8.702;2023-03-03T23:57:53;24.40;;;16.03;;
